Terminal Aerodrome Forecast
Issued by NWS

Home | Current Version | Previous Version | Text Only | Print | Product List | Glossary On
Versions: 1 2 3 4 5 6 7 8 9 10 11 12 13 14 15
000
FTAK31 PAJN 202300
TAFASI
TAF
PASI 202322Z 2100/2124 12012KT 6SM -RA BR OVC050
     FM210800 13006KT P6SM -SHRA OVC035
     FM211400 13006KT P6SM -SHRA OVC035=

USA.gov is the U.S. government's official web portal to all federal, state and local government web resources and services.